sensor_id;sensor_type;location;lat;lon;timestamp;P1;durP1;ratioP1;P2;durP2;ratioP2
61960;SDS011;47923;42.506;24.192;2022-11-15T00:01:47;68.88;;;38.95;;
61960;SDS011;47923;42.506;24.192;2022-11-15T00:04:12;57.90;;;35.08;;
61960;SDS011;47923;42.506;24.192;2022-11-15T00:06:38;64.57;;;36.20;;
61960;SDS011;47923;42.506;24.192;2022-11-15T00:09:03;54.33;;;33.30;;
61960;SDS011;47923;42.506;24.192;2022-11-15T00:11:29;49.58;;;29.88;;
61960;SDS011;47923;42.506;24.192;2022-11-15T00:13:55;49.13;;;29.10;;
61960;SDS011;47923;42.506;24.192;2022-11-15T00:16:21;51.03;;;31.30;;
61960;SDS011;47923;42.506;24.192;2022-11-15T00:18:47;48.10;;;29.23;;
61960;SDS011;47923;42.506;24.192;2022-11-15T00:21:13;47.33;;;28.85;;
61960;SDS011;47923;42.506;24.192;2022-11-15T00:23:39;47.20;;;29.17;;
61960;SDS011;47923;42.506;24.192;2022-11-15T00:26:04;41.85;;;27.13;;
61960;SDS011;47923;42.506;24.192;2022-11-15T00:28:30;44.38;;;26.13;;
61960;SDS011;47923;42.506;24.192;2022-11-15T00:31:05;45.20;;;26.02;;
61960;SDS011;47923;42.506;24.192;2022-11-15T00:33:33;41.70;;;25.23;;
61960;SDS011;47923;42.506;24.192;2022-11-15T00:36:00;43.58;;;27.33;;
61960;SDS011;47923;42.506;24.192;2022-11-15T00:38:34;42.75;;;25.70;;
61960;SDS011;47923;42.506;24.192;2022-11-15T00:41:01;43.30;;;26.30;;
61960;SDS011;47923;42.506;24.192;2022-11-15T00:43:27;49.40;;;27.88;;
61960;SDS011;47923;42.506;24.192;2022-11-15T00:45:53;43.50;;;27.50;;
61960;SDS011;47923;42.506;24.192;2022-11-15T00:48:18;42.38;;;27.85;;
61960;SDS011;47923;42.506;24.192;2022-11-15T00:50:44;32.50;;;19.73;;
61960;SDS011;47923;42.506;24.192;2022-11-15T00:53:09;26.50;;;15.65;;
61960;SDS011;47923;42.506;24.192;2022-11-15T00:55:35;25.65;;;16.25;;
61960;SDS011;47923;42.506;24.192;2022-11-15T00:58:00;27.33;;;16.05;;
61960;SDS011;47923;42.506;24.192;2022-11-15T01:00:26;27.27;;;16.15;;
61960;SDS011;47923;42.506;24.192;2022-11-15T01:02:51;32.00;;;17.33;;
61960;SDS011;47923;42.506;24.192;2022-11-15T01:05:17;29.98;;;19.65;;
61960;SDS011;47923;42.506;24.192;2022-11-15T01:07:42;34.95;;;21.98;;
61960;SDS011;47923;42.506;24.192;2022-11-15T01:10:08;38.55;;;23.15;;
61960;SDS011;47923;42.506;24.192;2022-11-15T01:12:34;36.38;;;22.42;;
61960;SDS011;47923;42.506;24.192;2022-11-15T01:15:00;35.47;;;22.52;;
61960;SDS011;47923;42.506;24.192;2022-11-15T01:17:26;36.35;;;23.40;;
61960;SDS011;47923;42.506;24.192;2022-11-15T01:19:51;38.38;;;23.42;;
61960;SDS011;47923;42.506;24.192;2022-11-15T01:22:17;38.65;;;24.88;;
61960;SDS011;47923;42.506;24.192;2022-11-15T01:24:43;36.88;;;24.23;;
61960;SDS011;47923;42.506;24.192;2022-11-15T01:27:08;40.35;;;24.73;;
61960;SDS011;47923;42.506;24.192;2022-11-15T01:29:34;35.78;;;22.23;;
61960;SDS011;47923;42.506;24.192;2022-11-15T01:31:59;35.63;;;23.67;;
61960;SDS011;47923;42.506;24.192;2022-11-15T01:34:25;37.63;;;23.45;;
61960;SDS011;47923;42.506;24.192;2022-11-15T01:36:51;33.38;;;20.25;;
61960;SDS011;47923;42.506;24.192;2022-11-15T01:39:16;33.20;;;21.02;;
61960;SDS011;47923;42.506;24.192;2022-11-15T01:41:42;34.78;;;21.13;;
61960;SDS011;47923;42.506;24.192;2022-11-15T01:47:26;35.15;;;20.75;;
61960;SDS011;47923;42.506;24.192;2022-11-15T01:49:57;30.33;;;19.23;;
61960;SDS011;47923;42.506;24.192;2022-11-15T01:52:26;34.28;;;21.63;;
61960;SDS011;47923;42.506;24.192;2022-11-15T01:57:32;28.52;;;17.83;;
61960;SDS011;47923;42.506;24.192;2022-11-15T01:59:58;29.38;;;18.67;;
61960;SDS011;47923;42.506;24.192;2022-11-15T02:02:28;28.92;;;16.95;;
61960;SDS011;47923;42.506;24.192;2022-11-15T02:04:53;26.58;;;16.75;;
61960;SDS011;47923;42.506;24.192;2022-11-15T02:07:19;28.67;;;17.50;;
61960;SDS011;47923;42.506;24.192;2022-11-15T02:09:46;28.20;;;16.92;;
61960;SDS011;47923;42.506;24.192;2022-11-15T02:12:14;27.25;;;16.40;;
61960;SDS011;47923;42.506;24.192;2022-11-15T02:14:44;28.45;;;16.60;;
61960;SDS011;47923;42.506;24.192;2022-11-15T02:20:08;25.58;;;16.30;;
61960;SDS011;47923;42.506;24.192;2022-11-15T02:30:54;33.30;;;17.50;;
61960;SDS011;47923;42.506;24.192;2022-11-15T02:36:26;26.35;;;16.88;;
61960;SDS011;47923;42.506;24.192;2022-11-15T02:41:58;29.40;;;18.00;;
61960;SDS011;47923;42.506;24.192;2022-11-15T02:44:55;26.02;;;15.55;;
61960;SDS011;47923;42.506;24.192;2022-11-15T02:47:26;28.73;;;18.15;;
61960;SDS011;47923;42.506;24.192;2022-11-15T02:50:00;26.88;;;17.73;;
61960;SDS011;47923;42.506;24.192;2022-11-15T02:52:31;29.55;;;18.00;;
61960;SDS011;47923;42.506;24.192;2022-11-15T02:54:58;45.42;;;25.83;;
61960;SDS011;47923;42.506;24.192;2022-11-15T02:57:32;43.75;;;27.08;;
61960;SDS011;47923;42.506;24.192;2022-11-15T03:00:25;39.42;;;23.08;;
61960;SDS011;47923;42.506;24.192;2022-11-15T03:03:13;42.28;;;25.55;;
61960;SDS011;47923;42.506;24.192;2022-11-15T03:11:51;30.02;;;19.15;;
61960;SDS011;47923;42.506;24.192;2022-11-15T03:22:11;42.13;;;27.33;;
61960;SDS011;47923;42.506;24.192;2022-11-15T03:24:40;39.28;;;27.13;;
61960;SDS011;47923;42.506;24.192;2022-11-15T03:27:08;33.28;;;21.60;;
61960;SDS011;47923;42.506;24.192;2022-11-15T03:29:38;39.88;;;25.35;;
61960;SDS011;47923;42.506;24.192;2022-11-15T03:32:12;40.25;;;26.35;;
61960;SDS011;47923;42.506;24.192;2022-11-15T03:37:08;39.60;;;26.95;;
61960;SDS011;47923;42.506;24.192;2022-11-15T03:39:38;45.55;;;29.10;;
61960;SDS011;47923;42.506;24.192;2022-11-15T03:42:24;40.50;;;27.42;;
61960;SDS011;47923;42.506;24.192;2022-11-15T03:47:30;40.38;;;27.42;;
61960;SDS011;47923;42.506;24.192;2022-11-15T03:50:04;41.22;;;28.58;;
61960;SDS011;47923;42.506;24.192;2022-11-15T03:52:33;44.05;;;28.95;;
61960;SDS011;47923;42.506;24.192;2022-11-15T03:55:00;41.38;;;27.35;;
61960;SDS011;47923;42.506;24.192;2022-11-15T03:57:27;44.55;;;28.90;;
61960;SDS011;47923;42.506;24.192;2022-11-15T03:59:53;38.50;;;26.60;;
61960;SDS011;47923;42.506;24.192;2022-11-15T04:02:19;43.90;;;25.20;;
61960;SDS011;47923;42.506;24.192;2022-11-15T04:04:44;34.90;;;23.77;;
61960;SDS011;47923;42.506;24.192;2022-11-15T04:07:10;38.72;;;24.38;;
61960;SDS011;47923;42.506;24.192;2022-11-15T04:09:35;36.17;;;22.88;;
61960;SDS011;47923;42.506;24.192;2022-11-15T04:12:24;31.58;;;20.95;;
61960;SDS011;47923;42.506;24.192;2022-11-15T04:14:56;30.70;;;20.60;;
61960;SDS011;47923;42.506;24.192;2022-11-15T04:17:42;34.10;;;20.52;;
61960;SDS011;47923;42.506;24.192;2022-11-15T04:20:10;38.55;;;23.55;;
61960;SDS011;47923;42.506;24.192;2022-11-15T04:22:55;33.78;;;20.02;;
61960;SDS011;47923;42.506;24.192;2022-11-15T04:25:41;30.17;;;19.08;;
61960;SDS011;47923;42.506;24.192;2022-11-15T04:28:07;38.22;;;25.98;;
61960;SDS011;47923;42.506;24.192;2022-11-15T04:30:33;35.65;;;24.13;;
61960;SDS011;47923;42.506;24.192;2022-11-15T04:32:58;41.42;;;30.70;;
61960;SDS011;47923;42.506;24.192;2022-11-15T04:35:24;42.83;;;32.22;;
61960;SDS011;47923;42.506;24.192;2022-11-15T04:37:49;50.13;;;34.92;;
61960;SDS011;47923;42.506;24.192;2022-11-15T04:40:15;53.13;;;35.63;;
61960;SDS011;47923;42.506;24.192;2022-11-15T04:42:41;53.83;;;36.40;;
61960;SDS011;47923;42.506;24.192;2022-11-15T04:45:07;55.13;;;37.15;;
61960;SDS011;47923;42.506;24.192;2022-11-15T04:47:34;51.90;;;35.90;;
61960;SDS011;47923;42.506;24.192;2022-11-15T04:49:59;47.42;;;33.25;;
61960;SDS011;47923;42.506;24.192;2022-11-15T04:52:24;48.75;;;35.65;;
61960;SDS011;47923;42.506;24.192;2022-11-15T04:54:50;51.58;;;37.55;;
61960;SDS011;47923;42.506;24.192;2022-11-15T04:57:15;48.35;;;35.13;;
61960;SDS011;47923;42.506;24.192;2022-11-15T04:59:41;49.58;;;35.95;;
61960;SDS011;47923;42.506;24.192;2022-11-15T05:02:06;53.53;;;37.60;;
61960;SDS011;47923;42.506;24.192;2022-11-15T05:04:32;49.47;;;38.05;;
61960;SDS011;47923;42.506;24.192;2022-11-15T05:06:57;58.83;;;38.75;;
61960;SDS011;47923;42.506;24.192;2022-11-15T05:09:22;105.20;;;67.40;;
61960;SDS011;47923;42.506;24.192;2022-11-15T05:11:48;130.07;;;80.38;;
61960;SDS011;47923;42.506;24.192;2022-11-15T05:14:14;144.90;;;86.95;;
61960;SDS011;47923;42.506;24.192;2022-11-15T05:16:39;134.73;;;86.00;;
61960;SDS011;47923;42.506;24.192;2022-11-15T05:19:05;112.35;;;71.60;;
61960;SDS011;47923;42.506;24.192;2022-11-15T05:21:31;102.57;;;65.18;;
61960;SDS011;47923;42.506;24.192;2022-11-15T05:23:57;76.53;;;53.55;;
61960;SDS011;47923;42.506;24.192;2022-11-15T05:26:23;73.35;;;51.05;;
61960;SDS011;47923;42.506;24.192;2022-11-15T05:28:53;70.70;;;49.65;;
61960;SDS011;47923;42.506;24.192;2022-11-15T05:31:22;67.20;;;47.43;;
61960;SDS011;47923;42.506;24.192;2022-11-15T05:33:49;71.85;;;48.75;;
61960;SDS011;47923;42.506;24.192;2022-11-15T05:38:56;72.78;;;50.15;;
61960;SDS011;47923;42.506;24.192;2022-11-15T05:41:24;73.55;;;49.35;;
61960;SDS011;47923;42.506;24.192;2022-11-15T05:44:12;70.60;;;48.63;;
61960;SDS011;47923;42.506;24.192;2022-11-15T05:46:39;68.32;;;51.88;;
61960;SDS011;47923;42.506;24.192;2022-11-15T05:49:07;76.30;;;52.72;;
61960;SDS011;47923;42.506;24.192;2022-11-15T05:51:36;77.28;;;54.88;;
61960;SDS011;47923;42.506;24.192;2022-11-15T05:54:02;70.68;;;52.08;;
61960;SDS011;47923;42.506;24.192;2022-11-15T05:56:28;72.97;;;53.72;;
61960;SDS011;47923;42.506;24.192;2022-11-15T05:58:54;78.95;;;53.92;;
61960;SDS011;47923;42.506;24.192;2022-11-15T06:01:21;68.65;;;49.72;;
61960;SDS011;47923;42.506;24.192;2022-11-15T06:03:48;76.45;;;52.88;;
61960;SDS011;47923;42.506;24.192;2022-11-15T06:06:13;93.85;;;67.38;;
61960;SDS011;47923;42.506;24.192;2022-11-15T06:08:38;96.57;;;69.97;;
61960;SDS011;47923;42.506;24.192;2022-11-15T06:11:05;101.40;;;69.10;;
61960;SDS011;47923;42.506;24.192;2022-11-15T06:13:31;84.00;;;62.15;;
61960;SDS011;47923;42.506;24.192;2022-11-15T06:15:57;90.28;;;62.75;;
61960;SDS011;47923;42.506;24.192;2022-11-15T06:18:23;130.75;;;86.07;;
61960;SDS011;47923;42.506;24.192;2022-11-15T06:20:49;149.95;;;104.25;;
61960;SDS011;47923;42.506;24.192;2022-11-15T06:23:14;148.38;;;101.03;;
61960;SDS011;47923;42.506;24.192;2022-11-15T06:25:40;140.50;;;85.10;;
61960;SDS011;47923;42.506;24.192;2022-11-15T06:28:05;146.85;;;91.88;;
61960;SDS011;47923;42.506;24.192;2022-11-15T06:30:30;144.45;;;87.88;;
61960;SDS011;47923;42.506;24.192;2022-11-15T06:33:00;118.78;;;76.80;;
61960;SDS011;47923;42.506;24.192;2022-11-15T06:35:27;123.03;;;81.28;;
61960;SDS011;47923;42.506;24.192;2022-11-15T06:37:53;145.30;;;85.32;;
61960;SDS011;47923;42.506;24.192;2022-11-15T06:40:18;111.03;;;68.97;;
61960;SDS011;47923;42.506;24.192;2022-11-15T06:42:44;125.40;;;83.20;;
61960;SDS011;47923;42.506;24.192;2022-11-15T06:45:09;103.53;;;69.78;;
61960;SDS011;47923;42.506;24.192;2022-11-15T06:47:34;102.32;;;67.07;;
61960;SDS011;47923;42.506;24.192;2022-11-15T06:50:00;81.63;;;53.33;;
61960;SDS011;47923;42.506;24.192;2022-11-15T06:52:25;95.25;;;64.53;;
61960;SDS011;47923;42.506;24.192;2022-11-15T06:54:51;96.75;;;62.40;;
61960;SDS011;47923;42.506;24.192;2022-11-15T06:57:17;95.95;;;64.38;;
61960;SDS011;47923;42.506;24.192;2022-11-15T06:59:42;103.10;;;66.65;;
61960;SDS011;47923;42.506;24.192;2022-11-15T07:02:14;97.22;;;63.95;;
61960;SDS011;47923;42.506;24.192;2022-11-15T07:04:39;92.05;;;60.72;;
61960;SDS011;47923;42.506;24.192;2022-11-15T07:07:05;76.60;;;51.50;;
61960;SDS011;47923;42.506;24.192;2022-11-15T07:09:30;69.90;;;46.92;;
61960;SDS011;47923;42.506;24.192;2022-11-15T07:11:56;63.45;;;44.38;;
61960;SDS011;47923;42.506;24.192;2022-11-15T07:14:21;67.47;;;43.80;;
61960;SDS011;47923;42.506;24.192;2022-11-15T07:16:47;57.55;;;36.72;;
61960;SDS011;47923;42.506;24.192;2022-11-15T07:19:12;57.63;;;36.60;;
61960;SDS011;47923;42.506;24.192;2022-11-15T07:21:38;54.58;;;35.28;;
61960;SDS011;47923;42.506;24.192;2022-11-15T07:24:03;77.90;;;49.28;;
61960;SDS011;47923;42.506;24.192;2022-11-15T07:26:29;81.10;;;54.80;;
61960;SDS011;47923;42.506;24.192;2022-11-15T07:28:54;64.80;;;45.67;;
61960;SDS011;47923;42.506;24.192;2022-11-15T07:31:20;67.97;;;42.50;;
61960;SDS011;47923;42.506;24.192;2022-11-15T07:33:46;54.70;;;39.20;;
61960;SDS011;47923;42.506;24.192;2022-11-15T07:36:11;57.08;;;38.70;;
61960;SDS011;47923;42.506;24.192;2022-11-15T07:38:36;53.25;;;36.22;;
61960;SDS011;47923;42.506;24.192;2022-11-15T07:41:03;53.47;;;34.35;;
61960;SDS011;47923;42.506;24.192;2022-11-15T07:43:29;46.47;;;32.08;;
61960;SDS011;47923;42.506;24.192;2022-11-15T07:45:58;43.90;;;29.70;;
61960;SDS011;47923;42.506;24.192;2022-11-15T07:48:30;54.25;;;34.75;;
61960;SDS011;47923;42.506;24.192;2022-11-15T07:50:58;49.10;;;31.73;;
61960;SDS011;47923;42.506;24.192;2022-11-15T07:53:24;38.50;;;25.38;;
61960;SDS011;47923;42.506;24.192;2022-11-15T07:55:50;34.15;;;22.90;;
61960;SDS011;47923;42.506;24.192;2022-11-15T07:58:16;38.92;;;27.38;;
61960;SDS011;47923;42.506;24.192;2022-11-15T08:00:42;30.60;;;19.70;;
61960;SDS011;47923;42.506;24.192;2022-11-15T08:03:09;26.05;;;16.95;;
61960;SDS011;47923;42.506;24.192;2022-11-15T08:05:39;28.70;;;19.05;;
61960;SDS011;47923;42.506;24.192;2022-11-15T08:08:06;29.83;;;18.40;;
61960;SDS011;47923;42.506;24.192;2022-11-15T08:10:36;32.25;;;20.65;;
61960;SDS011;47923;42.506;24.192;2022-11-15T08:13:04;29.73;;;20.33;;
61960;SDS011;47923;42.506;24.192;2022-11-15T08:15:34;28.23;;;20.08;;
61960;SDS011;47923;42.506;24.192;2022-11-15T08:18:08;29.50;;;19.38;;
61960;SDS011;47923;42.506;24.192;2022-11-15T08:20:42;36.83;;;24.30;;
61960;SDS011;47923;42.506;24.192;2022-11-15T08:23:12;34.05;;;22.15;;
61960;SDS011;47923;42.506;24.192;2022-11-15T08:25:39;35.47;;;23.00;;
61960;SDS011;47923;42.506;24.192;2022-11-15T08:28:06;35.08;;;26.88;;
61960;SDS011;47923;42.506;24.192;2022-11-15T08:33:25;38.38;;;25.65;;
61960;SDS011;47923;42.506;24.192;2022-11-15T08:35:56;53.22;;;43.53;;
61960;SDS011;47923;42.506;24.192;2022-11-15T08:40:58;41.25;;;27.00;;
61960;SDS011;47923;42.506;24.192;2022-11-15T08:43:26;32.53;;;23.10;;
61960;SDS011;47923;42.506;24.192;2022-11-15T08:45:55;35.30;;;22.92;;
61960;SDS011;47923;42.506;24.192;2022-11-15T08:48:21;35.88;;;24.30;;
61960;SDS011;47923;42.506;24.192;2022-11-15T08:50:46;29.45;;;19.92;;
61960;SDS011;47923;42.506;24.192;2022-11-15T08:53:12;31.45;;;20.40;;
61960;SDS011;47923;42.506;24.192;2022-11-15T08:55:38;25.48;;;18.40;;
61960;SDS011;47923;42.506;24.192;2022-11-15T08:58:04;32.15;;;19.95;;
61960;SDS011;47923;42.506;24.192;2022-11-15T09:00:30;26.63;;;17.92;;
61960;SDS011;47923;42.506;24.192;2022-11-15T09:02:55;27.33;;;18.20;;
61960;SDS011;47923;42.506;24.192;2022-11-15T09:05:21;32.40;;;20.13;;
61960;SDS011;47923;42.506;24.192;2022-11-15T09:07:46;30.98;;;21.05;;
61960;SDS011;47923;42.506;24.192;2022-11-15T09:10:12;34.55;;;22.08;;
61960;SDS011;47923;42.506;24.192;2022-11-15T09:12:37;33.13;;;22.55;;
61960;SDS011;47923;42.506;24.192;2022-11-15T09:15:04;29.98;;;20.50;;
61960;SDS011;47923;42.506;24.192;2022-11-15T09:17:30;32.97;;;22.58;;
61960;SDS011;47923;42.506;24.192;2022-11-15T09:19:56;39.10;;;27.73;;
61960;SDS011;47923;42.506;24.192;2022-11-15T09:22:21;26.30;;;17.60;;
61960;SDS011;47923;42.506;24.192;2022-11-15T09:24:46;32.63;;;22.67;;
61960;SDS011;47923;42.506;24.192;2022-11-15T09:27:12;28.90;;;19.33;;
61960;SDS011;47923;42.506;24.192;2022-11-15T09:29:39;35.22;;;21.25;;
61960;SDS011;47923;42.506;24.192;2022-11-15T09:32:05;41.13;;;25.45;;
61960;SDS011;47923;42.506;24.192;2022-11-15T09:34:30;38.15;;;23.65;;
61960;SDS011;47923;42.506;24.192;2022-11-15T09:36:55;39.97;;;24.70;;
61960;SDS011;47923;42.506;24.192;2022-11-15T09:39:21;34.17;;;24.05;;
61960;SDS011;47923;42.506;24.192;2022-11-15T09:49:24;37.13;;;24.27;;
61960;SDS011;47923;42.506;24.192;2022-11-15T09:51:50;38.40;;;26.58;;
61960;SDS011;47923;42.506;24.192;2022-11-15T09:54:31;37.80;;;26.23;;
61960;SDS011;47923;42.506;24.192;2022-11-15T09:59:58;37.72;;;23.45;;
61960;SDS011;47923;42.506;24.192;2022-11-15T10:04:56;32.28;;;22.88;;
61960;SDS011;47923;42.506;24.192;2022-11-15T10:07:28;29.33;;;21.10;;
61960;SDS011;47923;42.506;24.192;2022-11-15T10:10:13;34.55;;;22.50;;
61960;SDS011;47923;42.506;24.192;2022-11-15T10:12:45;34.45;;;22.75;;
61960;SDS011;47923;42.506;24.192;2022-11-15T10:15:14;32.47;;;23.35;;
61960;SDS011;47923;42.506;24.192;2022-11-15T10:23:06;38.17;;;28.13;;
61960;SDS011;47923;42.506;24.192;2022-11-15T10:25:35;42.10;;;29.77;;
61960;SDS011;47923;42.506;24.192;2022-11-15T10:30:37;41.63;;;27.88;;
61960;SDS011;47923;42.506;24.192;2022-11-15T10:41:19;34.80;;;22.05;;
61960;SDS011;47923;42.506;24.192;2022-11-15T10:44:01;28.35;;;18.65;;
61960;SDS011;47923;42.506;24.192;2022-11-15T10:46:36;24.38;;;17.08;;
61960;SDS011;47923;42.506;24.192;2022-11-15T10:51:57;26.52;;;17.77;;
61960;SDS011;47923;42.506;24.192;2022-11-15T10:54:30;27.48;;;18.75;;
61960;SDS011;47923;42.506;24.192;2022-11-15T10:57:04;33.45;;;23.10;;
61960;SDS011;47923;42.506;24.192;2022-11-15T10:59:33;37.20;;;26.58;;
61960;SDS011;47923;42.506;24.192;2022-11-15T11:02:02;32.30;;;22.52;;
61960;SDS011;47923;42.506;24.192;2022-11-15T11:04:51;28.67;;;19.90;;
61960;SDS011;47923;42.506;24.192;2022-11-15T11:07:20;28.10;;;20.02;;
61960;SDS011;47923;42.506;24.192;2022-11-15T11:10:13;27.33;;;22.13;;
61960;SDS011;47923;42.506;24.192;2022-11-15T11:12:43;37.50;;;31.85;;
61960;SDS011;47923;42.506;24.192;2022-11-15T11:15:13;34.45;;;27.27;;
61960;SDS011;47923;42.506;24.192;2022-11-15T11:20:44;38.08;;;26.50;;
61960;SDS011;47923;42.506;24.192;2022-11-15T11:23:36;44.03;;;30.08;;
61960;SDS011;47923;42.506;24.192;2022-11-15T11:29:16;34.60;;;24.67;;
61960;SDS011;47923;42.506;24.192;2022-11-15T11:37:28;29.38;;;20.38;;
61960;SDS011;47923;42.506;24.192;2022-11-15T11:40:10;28.83;;;21.98;;
61960;SDS011;47923;42.506;24.192;2022-11-15T11:51:01;34.58;;;18.00;;
61960;SDS011;47923;42.506;24.192;2022-11-15T11:53:39;24.85;;;17.30;;
61960;SDS011;47923;42.506;24.192;2022-11-15T11:56:12;24.77;;;16.45;;
61960;SDS011;47923;42.506;24.192;2022-11-15T11:59:19;31.92;;;21.00;;
61960;SDS011;47923;42.506;24.192;2022-11-15T12:01:57;32.30;;;22.23;;
61960;SDS011;47923;42.506;24.192;2022-11-15T12:04:50;26.35;;;18.80;;
61960;SDS011;47923;42.506;24.192;2022-11-15T12:09:58;24.35;;;16.85;;
61960;SDS011;47923;42.506;24.192;2022-11-15T12:12:37;25.30;;;15.75;;
61960;SDS011;47923;42.506;24.192;2022-11-15T12:17:35;31.05;;;21.58;;
61960;SDS011;47923;42.506;24.192;2022-11-15T12:22:59;31.85;;;21.13;;
61960;SDS011;47923;42.506;24.192;2022-11-15T12:28:14;27.55;;;18.50;;
61960;SDS011;47923;42.506;24.192;2022-11-15T12:30:46;28.77;;;17.45;;
61960;SDS011;47923;42.506;24.192;2022-11-15T12:36:30;30.23;;;19.80;;
61960;SDS011;47923;42.506;24.192;2022-11-15T12:43:59;26.25;;;17.92;;
61960;SDS011;47923;42.506;24.192;2022-11-15T12:48:55;26.15;;;18.50;;
61960;SDS011;47923;42.506;24.192;2022-11-15T12:54:51;29.17;;;20.02;;
61960;SDS011;47923;42.506;24.192;2022-11-15T13:12:53;31.75;;;22.40;;
61960;SDS011;47923;42.506;24.192;2022-11-15T13:17:53;34.33;;;24.15;;
61960;SDS011;47923;42.506;24.192;2022-11-15T13:20:22;30.92;;;23.42;;
61960;SDS011;47923;42.506;24.192;2022-11-15T13:28:30;29.70;;;20.02;;
61960;SDS011;47923;42.506;24.192;2022-11-15T13:33:53;31.95;;;20.25;;
61960;SDS011;47923;42.506;24.192;2022-11-15T13:36:25;28.08;;;18.38;;
61960;SDS011;47923;42.506;24.192;2022-11-15T13:38:55;27.48;;;18.15;;
61960;SDS011;47923;42.506;24.192;2022-11-15T13:41:23;48.10;;;31.02;;
61960;SDS011;47923;42.506;24.192;2022-11-15T13:43:52;35.28;;;23.83;;
61960;SDS011;47923;42.506;24.192;2022-11-15T13:49:04;30.20;;;20.70;;
61960;SDS011;47923;42.506;24.192;2022-11-15T13:57:05;29.55;;;19.63;;
61960;SDS011;47923;42.506;24.192;2022-11-15T13:59:43;29.02;;;19.08;;
61960;SDS011;47923;42.506;24.192;2022-11-15T14:02:13;30.25;;;20.63;;
61960;SDS011;47923;42.506;24.192;2022-11-15T14:04:48;30.77;;;22.23;;
61960;SDS011;47923;42.506;24.192;2022-11-15T14:07:17;31.23;;;21.10;;
61960;SDS011;47923;42.506;24.192;2022-11-15T14:09:45;30.77;;;20.73;;
61960;SDS011;47923;42.506;24.192;2022-11-15T14:14:52;33.25;;;21.13;;
61960;SDS011;47923;42.506;24.192;2022-11-15T14:17:32;31.95;;;22.30;;
61960;SDS011;47923;42.506;24.192;2022-11-15T14:20:00;31.13;;;21.25;;
61960;SDS011;47923;42.506;24.192;2022-11-15T14:30:31;36.57;;;23.13;;
61960;SDS011;47923;42.506;24.192;2022-11-15T14:32:57;37.60;;;24.20;;
61960;SDS011;47923;42.506;24.192;2022-11-15T14:35:22;39.65;;;26.30;;
61960;SDS011;47923;42.506;24.192;2022-11-15T14:37:48;45.33;;;29.30;;
61960;SDS011;47923;42.506;24.192;2022-11-15T14:40:16;72.47;;;47.47;;
61960;SDS011;47923;42.506;24.192;2022-11-15T14:42:44;61.55;;;42.80;;
61960;SDS011;47923;42.506;24.192;2022-11-15T14:45:12;69.30;;;46.25;;
61960;SDS011;47923;42.506;24.192;2022-11-15T14:47:42;64.10;;;43.42;;
61960;SDS011;47923;42.506;24.192;2022-11-15T14:50:12;73.18;;;47.92;;
61960;SDS011;47923;42.506;24.192;2022-11-15T14:52:38;76.43;;;50.05;;
61960;SDS011;47923;42.506;24.192;2022-11-15T14:55:10;70.10;;;46.13;;
61960;SDS011;47923;42.506;24.192;2022-11-15T14:57:43;62.65;;;44.00;;
61960;SDS011;47923;42.506;24.192;2022-11-15T15:00:08;57.58;;;38.58;;
61960;SDS011;47923;42.506;24.192;2022-11-15T15:02:35;54.08;;;36.58;;
61960;SDS011;47923;42.506;24.192;2022-11-15T15:05:01;59.45;;;38.22;;
61960;SDS011;47923;42.506;24.192;2022-11-15T15:07:36;51.90;;;32.70;;
61960;SDS011;47923;42.506;24.192;2022-11-15T15:10:02;50.92;;;33.13;;
61960;SDS011;47923;42.506;24.192;2022-11-15T15:12:28;59.30;;;34.63;;
61960;SDS011;47923;42.506;24.192;2022-11-15T15:14:54;45.83;;;31.88;;
61960;SDS011;47923;42.506;24.192;2022-11-15T15:17:19;50.63;;;35.38;;
61960;SDS011;47923;42.506;24.192;2022-11-15T15:19:44;83.15;;;61.47;;
61960;SDS011;47923;42.506;24.192;2022-11-15T15:22:17;137.23;;;97.18;;
61960;SDS011;47923;42.506;24.192;2022-11-15T15:24:44;106.18;;;78.45;;
61960;SDS011;47923;42.506;24.192;2022-11-15T15:27:11;78.93;;;56.25;;
61960;SDS011;47923;42.506;24.192;2022-11-15T15:29:37;74.45;;;53.38;;
61960;SDS011;47923;42.506;24.192;2022-11-15T15:32:02;53.50;;;37.28;;
61960;SDS011;47923;42.506;24.192;2022-11-15T15:34:28;58.05;;;38.53;;
61960;SDS011;47923;42.506;24.192;2022-11-15T15:37:18;62.00;;;44.10;;
61960;SDS011;47923;42.506;24.192;2022-11-15T15:39:53;59.13;;;40.10;;
61960;SDS011;47923;42.506;24.192;2022-11-15T15:42:20;60.05;;;43.17;;
61960;SDS011;47923;42.506;24.192;2022-11-15T15:44:46;56.38;;;41.40;;
61960;SDS011;47923;42.506;24.192;2022-11-15T15:47:13;59.50;;;43.50;;
61960;SDS011;47923;42.506;24.192;2022-11-15T15:49:41;61.08;;;45.15;;
61960;SDS011;47923;42.506;24.192;2022-11-15T15:52:06;63.45;;;43.88;;
61960;SDS011;47923;42.506;24.192;2022-11-15T15:54:32;62.40;;;43.90;;
61960;SDS011;47923;42.506;24.192;2022-11-15T15:56:57;62.85;;;46.20;;
61960;SDS011;47923;42.506;24.192;2022-11-15T15:59:23;61.67;;;44.28;;
61960;SDS011;47923;42.506;24.192;2022-11-15T16:01:48;70.93;;;49.83;;
61960;SDS011;47923;42.506;24.192;2022-11-15T16:04:14;81.57;;;59.35;;
61960;SDS011;47923;42.506;24.192;2022-11-15T16:06:40;60.95;;;43.03;;
61960;SDS011;47923;42.506;24.192;2022-11-15T16:09:15;63.88;;;43.85;;
61960;SDS011;47923;42.506;24.192;2022-11-15T16:11:43;61.25;;;41.10;;
61960;SDS011;47923;42.506;24.192;2022-11-15T16:14:10;62.33;;;41.42;;
61960;SDS011;47923;42.506;24.192;2022-11-15T16:16:35;57.00;;;36.00;;
61960;SDS011;47923;42.506;24.192;2022-11-15T16:19:02;64.30;;;40.25;;
61960;SDS011;47923;42.506;24.192;2022-11-15T16:21:28;70.93;;;44.85;;
61960;SDS011;47923;42.506;24.192;2022-11-15T16:23:53;64.18;;;40.17;;
61960;SDS011;47923;42.506;24.192;2022-11-15T16:26:26;69.30;;;43.92;;
61960;SDS011;47923;42.506;24.192;2022-11-15T16:28:53;77.22;;;46.08;;
61960;SDS011;47923;42.506;24.192;2022-11-15T16:31:19;73.22;;;46.95;;
61960;SDS011;47923;42.506;24.192;2022-11-15T16:33:47;91.22;;;66.75;;
61960;SDS011;47923;42.506;24.192;2022-11-15T16:36:23;130.65;;;85.40;;
61960;SDS011;47923;42.506;24.192;2022-11-15T16:38:50;106.78;;;70.90;;
61960;SDS011;47923;42.506;24.192;2022-11-15T16:41:16;96.03;;;62.92;;
61960;SDS011;47923;42.506;24.192;2022-11-15T16:43:46;82.32;;;57.30;;
61960;SDS011;47923;42.506;24.192;2022-11-15T16:46:24;92.82;;;62.50;;
61960;SDS011;47923;42.506;24.192;2022-11-15T16:48:51;72.70;;;50.67;;
61960;SDS011;47923;42.506;24.192;2022-11-15T16:51:21;67.53;;;48.70;;
61960;SDS011;47923;42.506;24.192;2022-11-15T16:53:47;67.30;;;49.45;;
61960;SDS011;47923;42.506;24.192;2022-11-15T16:56:24;65.65;;;47.85;;
61960;SDS011;47923;42.506;24.192;2022-11-15T16:58:52;66.80;;;46.65;;
61960;SDS011;47923;42.506;24.192;2022-11-15T17:01:26;59.67;;;41.42;;
61960;SDS011;47923;42.506;24.192;2022-11-15T17:03:53;57.65;;;41.25;;
61960;SDS011;47923;42.506;24.192;2022-11-15T17:06:19;56.33;;;38.38;;
61960;SDS011;47923;42.506;24.192;2022-11-15T17:08:46;53.33;;;35.67;;
61960;SDS011;47923;42.506;24.192;2022-11-15T17:11:16;58.28;;;35.92;;